Time;durP1;ratioP1;P1;durP2;ratioP2;P2;SDS_P1;SDS_P2;PMS_P1;PMS_P2;Temp;Humidity;BMP_temperature;BMP_pressure;BME280_temperature;BME280_humidity;BME280_pressure;Samples;Min_cycle;Max_cycle;Signal;HPM_P1;HPM_P2
2023/11/21 00:03:00;;;;;;;0.10;0.10;;;;;;;9.03;86.52;100375.69;15736480;28;20056;-72
2023/11/21 00:10:33;;;;;;;0.00;0.00;;;;;;;9.17;86.01;100376.47;15735835;28;20060;-72
2023/11/21 00:18:08;;;;;;;0.00;0.00;;;;;;;9.28;85.63;100389.25;15736124;28;20145;-72
2023/11/21 00:25:42;;;;;;;0.63;0.63;;;;;;;9.31;84.69;100383.44;15735989;28;20495;-73
2023/11/21 00:33:17;;;;;;;0.00;0.00;;;;;;;9.35;84.17;100389.22;15735460;28;21266;-72
2023/11/21 00:40:50;;;;;;;0.00;0.00;;;;;;;9.00;84.61;100394.88;15724709;28;20055;-72
2023/11/21 00:48:25;;;;;;;;;;;;;;;9.03;84.28;100409.66;15734659;28;20044;-71
2023/11/21 00:55:58;;;;;;;0.00;0.00;;;;;;;8.58;85.04;100420.19;15719405;28;19928;-71
2023/11/21 01:03:33;;;;;;;;;;;;;;;8.28;85.59;100433.09;15719501;28;20047;-71
2023/11/21 01:11:12;;;;;;;0.10;0.10;;;;;;;8.15;83.39;100440.03;15740077;28;20018;-72
2023/11/21 01:18:47;;;;;;;0.25;0.25;;;;;;;7.55;84.92;100456.84;15751510;28;20139;-74
2023/11/21 01:26:20;;;;;;;0.35;0.35;;;;;;;7.63;83.79;100465.53;15744425;28;20040;-71
2023/11/21 01:33:55;;;;;;;0.13;0.13;;;;;;;7.27;84.61;100476.41;15733171;28;20036;-72
2023/11/21 01:41:28;;;;;;;0.00;0.00;;;;;;;7.32;84.45;100489.16;15715506;28;20102;-71
2023/11/21 01:49:03;;;;;;;;;;;;;;;7.48;83.01;100478.19;15734263;28;20045;-71
2023/11/21 01:56:37;;;;;;;0.98;0.80;;;;;;;7.03;84.74;100490.19;15735609;28;19931;-72
2023/11/21 02:04:11;;;;;;;;;;;;;;;6.85;85.51;100504.00;15723945;28;20052;-70
2023/11/21 02:11:45;;;;;;;3.50;3.17;;;;;;;7.33;83.65;100513.03;15743437;28;19951;-72
2023/11/21 02:19:22;;;;;;;5.10;2.53;;;;;;;7.14;83.99;100517.19;15746366;28;20048;-72
2023/11/21 02:27:00;;;;;;;0.05;0.05;;;;;;;7.05;84.32;100521.00;15726304;28;20524;-72
2023/11/21 02:34:33;;;;;;;0.70;0.65;;;;;;;6.80;85.24;100531.22;15750804;28;20044;-72
2023/11/21 02:42:08;;;;;;;0.98;0.80;;;;;;;6.74;85.03;100524.00;15707704;28;20546;-72
2023/11/21 02:49:42;;;;;;;0.70;0.70;;;;;;;7.25;82.83;100537.19;15741940;28;20047;-71
2023/11/21 02:57:18;;;;;;;2.17;1.85;;;;;;;6.46;85.50;100539.09;15743840;28;20147;-72
2023/11/21 03:04:52;;;;;;;0.98;0.98;;;;;;;6.72;84.67;100536.72;15738591;28;20535;-71
2023/11/21 03:12:29;;;;;;;0.70;0.70;;;;;;;6.35;85.00;100545.75;15720701;28;20033;-71
2023/11/21 03:20:04;;;;;;;0.47;0.47;;;;;;;6.37;85.02;100554.38;15718969;28;20040;-72
2023/11/21 03:27:39;;;;;;;0.00;0.00;;;;;;;6.46;84.75;100565.75;15736769;28;20060;-71
2023/11/21 03:35:13;;;;;;;0.10;0.10;;;;;;;6.51;83.89;100580.16;15735461;28;20488;-71
2023/11/21 03:42:48;;;;;;;0.00;0.00;;;;;;;6.76;82.60;100583.34;15735225;28;20082;-72
2023/11/21 03:50:22;;;;;;;0.05;0.05;;;;;;;6.48;82.44;100596.56;15717313;28;20041;-71
2023/11/21 03:57:59;;;;;;;2.83;2.58;;;;;;;5.98;83.87;100592.00;15738774;28;20072;-73
2023/11/21 04:05:35;;;;;;;0.28;0.28;;;;;;;6.60;82.25;100612.91;15727836;28;20111;-72
2023/11/21 04:13:11;;;;;;;1.83;1.35;;;;;;;6.34;82.88;100621.38;15734825;28;20056;-73
2023/11/21 04:20:45;;;;;;;1.35;1.25;;;;;;;6.02;83.88;100630.59;15733542;28;20454;-72
2023/11/21 04:28:20;;;;;;;0.50;0.50;;;;;;;6.39;82.71;100638.50;15732606;28;20115;-71
2023/11/21 04:35:54;;;;;;;3.92;2.10;;;;;;;6.10;83.67;100655.28;15733622;28;20111;-71
2023/11/21 04:43:31;;;;;;;0.30;0.30;;;;;;;6.33;82.28;100665.88;15733786;28;20072;-71
2023/11/21 04:51:05;;;;;;;1.77;1.10;;;;;;;6.03;82.07;100651.72;15732839;28;20041;-71
2023/11/21 04:58:40;;;;;;;1.35;0.47;;;;;;;6.17;81.45;100659.91;15736622;28;20044;-72
2023/11/21 05:06:14;;;;;;;1.67;0.85;;;;;;;6.14;81.77;100680.56;15717972;28;20475;-72
2023/11/21 05:13:49;;;;;;;0.15;0.15;;;;;;;6.25;79.78;100697.97;15742342;28;20087;-72
2023/11/21 05:21:24;;;;;;;0.43;0.43;;;;;;;5.89;80.60;100711.09;15722178;22;20407;-46
2023/11/21 05:28:59;;;;;;;3.65;2.10;;;;;;;5.72;80.94;100713.06;15670231;28;20060;-48
2023/11/21 05:36:32;;;;;;;2.75;0.95;;;;;;;5.60;80.65;100728.66;15638496;23;20046;-52
2023/11/21 05:44:06;;;;;;;0.10;0.10;;;;;;;5.54;79.74;100728.53;15611373;28;20073;-54
2023/11/21 05:51:40;;;;;;;0.00;0.00;;;;;;;5.18;80.28;100750.41;15614708;28;20038;-53
2023/11/21 05:59:16;;;;;;;0.93;0.63;;;;;;;5.65;79.70;100764.59;15647730;28;20112;-53
2023/11/21 06:06:50;;;;;;;0.00;0.00;;;;;;;5.34;79.68;100774.25;15713008;28;20134;-54
2023/11/21 06:14:24;;;;;;;0.40;0.40;;;;;;;5.44;80.47;100787.31;15710845;28;20493;-49
2023/11/21 06:21:57;;;;;;;0.00;0.00;;;;;;;5.72;78.91;100795.63;15718476;28;20525;-55
2023/11/21 06:29:32;;;;;;;;;;;;;;;5.54;79.95;100811.06;15711199;28;20350;-53
2023/11/21 06:37:06;;;;;;;0.00;0.00;;;;;;;5.34;79.90;100823.97;15735078;28;19928;-51
2023/11/21 06:44:41;;;;;;;;;;;;;;;5.09;79.46;100834.75;15735954;28;20114;-54
2023/11/21 06:52:16;;;;;;;0.10;0.10;;;;;;;5.31;78.56;100841.13;15735047;28;19942;-51
2023/11/21 06:59:51;;;;;;;0.00;0.00;;;;;;;5.49;77.55;100840.88;15735157;28;20048;-51
2023/11/21 07:07:25;;;;;;;0.10;0.10;;;;;;;5.18;78.67;100848.84;15733578;28;20050;-54
2023/11/21 07:14:59;;;;;;;;;;;;;;;5.31;77.72;100851.75;15732604;28;20773;-51
2023/11/21 07:22:34;;;;;;;0.63;0.55;;;;;;;5.36;77.72;100859.22;15732261;28;20366;-53
2023/11/21 07:30:17;;;;;;;0.10;0.10;;;;;;;5.40;77.31;100868.53;15732948;28;20562;-45
2023/11/21 07:37:51;;;;;;;0.00;0.00;;;;;;;5.60;75.43;100874.28;15730669;28;20040;-47
2023/11/21 07:45:27;;;;;;;1.17;1.10;;;;;;;5.00;77.12;100886.31;15731708;28;20121;-49
2023/11/21 07:53:00;;;;;;;0.00;0.00;;;;;;;5.53;75.39;100891.94;15735335;28;20066;-48
2023/11/21 08:00:35;;;;;;;;;;;;;;;5.27;75.95;100890.41;15669138;28;20052;-50
2023/11/21 08:08:25;;;;;;;0.70;0.50;;;;;;;5.52;75.77;100896.44;15667427;28;19987;-47
2023/11/21 08:16:02;;;;;;;0.00;0.00;;;;;;;6.00;74.74;100912.34;15670388;28;20498;-48
2023/11/21 08:23:36;;;;;;;0.10;0.10;;;;;;;5.66;75.51;100921.50;15726569;28;20130;-47
2023/11/21 08:31:10;;;;;;;;;;;;;;;5.48;75.92;100921.75;15730125;28;20098;-47
2023/11/21 08:38:44;;;;;;;0.00;0.00;;;;;;;5.55;76.03;100930.72;15729266;28;19928;-50
2023/11/21 08:46:19;;;;;;;4.25;1.17;;;;;;;5.84;74.45;100935.41;15681523;28;20123;-46
2023/11/21 08:53:52;;;;;;;0.38;0.17;;;;;;;5.46;75.19;100942.41;15675366;28;20045;-50
2023/11/21 09:01:28;;;;;;;0.20;0.20;;;;;;;5.87;74.12;100950.19;15667208;28;20361;-49
2023/11/21 09:09:04;;;;;;;0.52;0.52;;;;;;;5.70;74.75;100961.94;15666633;28;20041;-47
2023/11/21 09:16:41;;;;;;;0.30;0.20;;;;;;;5.41;75.41;100976.69;15678751;28;20036;-46
2023/11/21 09:24:14;;;;;;;0.90;0.90;;;;;;;5.37;76.17;100983.34;15741179;28;20261;-52
2023/11/21 09:31:51;;;;;;;0.00;0.00;;;;;;;5.42;75.66;100994.31;15741142;28;20041;-48
2023/11/21 09:39:24;;;;;;;0.22;0.22;;;;;;;5.05;76.02;101016.16;15739854;28;20043;-46
2023/11/21 09:47:00;;;;;;;;;;;;;;;5.14;76.62;101014.34;15743016;28;20045;-52
2023/11/21 09:54:35;;;;;;;0.50;0.15;;;;;;;5.06;75.98;101021.31;15715224;28;20019;-49
2023/11/21 10:02:12;;;;;;;0.13;0.13;;;;;;;5.09;75.98;101028.13;15679115;28;20041;-45
2023/11/21 10:09:47;;;;;;;0.00;0.00;;;;;;;5.08;75.93;101035.28;15659724;28;20045;-47
2023/11/21 10:17:26;;;;;;;0.00;0.00;;;;;;;5.41;75.50;101037.06;15690978;28;20036;-45
2023/11/21 10:24:59;;;;;;;0.17;0.17;;;;;;;5.37;76.16;101031.25;15740726;28;20049;-47
2023/11/21 10:32:34;;;;;;;0.00;0.00;;;;;;;4.93;76.54;101031.63;15738303;28;20055;-50
2023/11/21 10:40:11;;;;;;;0.00;0.00;;;;;;;5.48;74.73;101046.03;15737884;28;20442;-46
2023/11/21 10:47:46;;;;;;;0.43;0.40;;;;;;;4.99;75.62;101054.91;15720699;28;20041;-50
2023/11/21 10:55:23;;;;;;;0.20;0.20;;;;;;;5.36;74.86;101056.19;15722911;28;20053;-49
2023/11/21 11:02:59;;;;;;;0.55;0.50;;;;;;;4.88;75.16;101073.84;15675284;28;20504;-46
2023/11/21 11:10:33;;;;;;;0.32;0.32;;;;;;;5.15;75.83;101075.34;15736963;28;20044;-47
2023/11/21 11:18:08;;;;;;;12.30;1.55;;;;;;;5.84;74.39;101070.44;15737381;28;20068;-45
2023/11/21 11:25:59;;;;;;;0.03;0.03;;;;;;;5.54;75.70;101078.13;15737167;28;20463;-45
2023/11/21 11:33:40;;;;;;;0.10;0.10;;;;;;;5.35;75.85;101097.97;15750265;23;20052;-49
2023/11/21 11:41:14;;;;;;;0.00;0.00;;;;;;;4.92;78.22;101116.91;15736157;28;20048;-49
2023/11/21 11:48:48;;;;;;;;;;;;;;;4.85;78.26;101120.22;15720354;28;20498;-49
2023/11/21 11:56:27;;;;;;;0.20;0.20;;;;;;;5.14;77.85;101134.06;15720857;28;20375;-49
2023/11/21 12:04:30;;;;;;;0.00;0.00;;;;;;;4.74;79.78;101149.78;15729616;28;20403;-51
2023/11/21 12:12:06;;;;;;;0.10;0.10;;;;;;;4.87;79.81;101157.28;15698364;28;20438;-50
2023/11/21 12:19:41;;;;;;;0.00;0.00;;;;;;;4.80;80.47;101169.56;15715660;28;20102;-52
2023/11/21 12:27:19;;;;;;;0.00;0.00;;;;;;;4.71;80.66;101184.69;15733850;28;20044;-51
2023/11/21 12:34:55;;;;;;;0.00;0.00;;;;;;;4.43;81.46;101186.72;15734813;28;20044;-49
2023/11/21 12:42:30;;;;;;;0.00;0.00;;;;;;;4.48;81.34;101200.38;15733947;28;20075;-49
2023/11/21 12:50:12;;;;;;;0.03;0.03;;;;;;;4.31;81.73;101202.09;15735752;28;20053;-50
2023/11/21 12:57:51;;;;;;;0.03;0.03;;;;;;;4.59;80.54;101204.56;15688487;28;20045;-47
2023/11/21 13:05:28;;;;;;;0.00;0.00;;;;;;;4.31;82.00;101223.38;15732947;28;20047;-47
2023/11/21 13:13:05;;;;;;;0.00;0.00;;;;;;;4.44;81.06;101232.75;15735290;28;20143;-48
2023/11/21 13:20:42;;;;;;;0.05;0.05;;;;;;;4.53;80.53;101235.28;15727856;28;20048;-51
2023/11/21 13:28:16;;;;;;;0.47;0.28;;;;;;;4.33;79.72;101239.97;15713119;28;20037;-48
2023/11/21 13:35:51;;;;;;;0.00;0.00;;;;;;;4.53;79.21;101245.09;15740266;28;20036;-47
2023/11/21 13:43:28;;;;;;;0.75;0.65;;;;;;;4.82;77.57;101237.56;15739633;28;20094;-49
2023/11/21 13:51:12;;;;;;;0.38;0.38;;;;;;;4.53;78.45;101267.19;15738366;28;20140;-53
2023/11/21 13:58:51;;;;;;;0.25;0.25;;;;;;;4.09;79.64;101284.97;15717489;28;20068;-52
2023/11/21 14:06:32;;;;;;;0.00;0.00;;;;;;;4.13;79.73;101288.19;15746283;28;20041;-49
2023/11/21 14:14:07;;;;;;;0.28;0.28;;;;;;;4.24;79.44;101306.50;15729217;28;20048;-52
2023/11/21 14:21:43;;;;;;;0.10;0.10;;;;;;;3.92;80.80;101323.88;15746715;28;20671;-51
2023/11/21 14:29:19;;;;;;;0.73;0.73;;;;;;;3.94;80.48;101326.38;15746885;28;20436;-50
2023/11/21 14:36:54;;;;;;;0.10;0.10;;;;;;;3.79;80.34;101332.22;15745634;28;20526;-50
2023/11/21 14:44:43;;;;;;;0.30;0.30;;;;;;;3.66;79.91;101341.53;15742350;28;20466;-47
2023/11/21 14:52:31;;;;;;;3.92;0.60;;;;;;;3.99;79.07;101351.47;15727139;28;20402;-49
2023/11/21 15:00:30;;;;;;;6.18;2.22;;;;;;;3.47;80.25;101374.34;15740382;28;20055;-49
2023/11/21 15:08:18;;;;;;;0.05;0.05;;;;;;;3.11;80.89;101384.00;15743785;28;20494;-49
2023/11/21 15:15:54;;;;;;;1.38;0.70;;;;;;;3.12;80.81;101409.53;15737419;28;20074;-49
2023/11/21 15:23:30;;;;;;;1.08;0.80;;;;;;;3.51;79.04;101419.03;15742012;28;20491;-50
2023/11/21 15:31:04;;;;;;;0.32;0.25;;;;;;;2.96;78.88;101421.59;15691378;28;20102;-50
2023/11/21 15:38:40;;;;;;;0.75;0.75;;;;;;;2.84;79.79;101438.66;15738085;28;20083;-51
2023/11/21 15:46:13;;;;;;;1.80;1.00;;;;;;;2.84;80.04;101448.41;15740678;28;20179;-52
2023/11/21 15:53:49;;;;;;;0.47;0.38;;;;;;;2.70;79.89;101449.69;15745747;28;20513;-49
2023/11/21 16:01:25;;;;;;;4.30;1.77;;;;;;;2.67;78.08;101457.94;15741976;28;20466;-48
2023/11/21 16:09:01;;;;;;;1.38;1.27;;;;;;;2.33;78.90;101474.25;15722881;28;20075;-49
2023/11/21 16:16:36;;;;;;;0.35;0.35;;;;;;;2.71;78.02;101477.91;15735573;28;20043;-51
2023/11/21 16:24:11;;;;;;;0.00;0.00;;;;;;;2.52;78.11;101505.25;15721401;28;20449;-49
2023/11/21 16:31:46;;;;;;;0.68;0.55;;;;;;;2.77;77.40;101517.91;15703681;28;20046;-54
2023/11/21 16:39:22;;;;;;;0.40;0.40;;;;;;;2.51;77.25;101530.88;15704597;28;20060;-52
2023/11/21 16:46:57;;;;;;;0.50;0.50;;;;;;;2.38;77.07;101546.22;15742678;28;20056;-51
2023/11/21 16:54:32;;;;;;;0.00;0.00;;;;;;;2.24;77.58;101546.63;15743370;28;20078;-49
2023/11/21 17:02:05;;;;;;;0.08;0.08;;;;;;;2.09;78.11;101567.31;15735517;28;20044;-50
2023/11/21 17:09:41;;;;;;;0.25;0.22;;;;;;;2.06;76.35;101583.50;15735981;28;20055;-47
2023/11/21 17:17:15;;;;;;;0.05;0.05;;;;;;;2.06;75.53;101587.97;15735225;28;20047;-48
2023/11/21 17:24:50;;;;;;;;;;;;;;;1.79;72.90;101602.59;15717392;28;20094;-50
2023/11/21 17:32:24;;;;;;;1.55;0.52;;;;;;;2.01;72.92;101620.97;15744971;22;20002;-48
2023/11/21 17:40:00;;;;;;;0.45;0.45;;;;;;;2.17;71.73;101631.06;15676669;28;20107;-51
2023/11/21 17:47:37;;;;;;;1.10;0.43;;;;;;;1.93;72.51;101641.13;15675108;28;20123;-52
2023/11/21 17:55:11;;;;;;;0.20;0.20;;;;;;;2.21;73.07;101652.81;15687413;28;20045;-51
2023/11/21 18:02:45;;;;;;;0.00;0.00;;;;;;;2.08;72.23;101676.03;15666332;28;20557;-52
2023/11/21 18:10:22;;;;;;;0.08;0.08;;;;;;;2.37;73.73;101686.75;15660736;28;20045;-54
2023/11/21 18:17:55;;;;;;;0.03;0.03;;;;;;;2.47;73.49;101693.78;15678680;28;20049;-51
2023/11/21 18:25:30;;;;;;;1.13;1.13;;;;;;;2.62;73.56;101702.19;15654321;28;20446;-53
2023/11/21 18:33:05;;;;;;;0.00;0.00;;;;;;;2.11;72.69;101726.09;15664732;28;20067;-52
2023/11/21 18:40:39;;;;;;;0.65;0.65;;;;;;;2.18;71.05;101732.53;15651467;28;20392;-53
2023/11/21 18:48:15;;;;;;;0.68;0.57;;;;;;;2.18;71.13;101751.06;15679210;28;20048;-51
2023/11/21 18:55:49;;;;;;;0.47;0.47;;;;;;;2.02;71.52;101776.22;15683847;28;20465;-49
2023/11/21 19:03:23;;;;;;;0.43;0.43;;;;;;;2.23;70.58;101772.72;15679896;28;20060;-53
2023/11/21 19:10:58;;;;;;;0.00;0.00;;;;;;;1.98;71.92;101777.44;15678651;28;20496;-51
2023/11/21 19:18:31;;;;;;;0.03;0.03;;;;;;;1.89;70.57;101796.75;15677963;28;20439;-50
2023/11/21 19:26:08;;;;;;;0.00;0.00;;;;;;;2.06;71.68;101802.44;15677460;28;20041;-49
2023/11/21 19:33:41;;;;;;;0.88;0.88;;;;;;;2.19;69.89;101811.00;15676992;28;20487;-49
2023/11/21 19:41:18;;;;;;;0.82;0.75;;;;;;;2.18;69.11;101834.03;15660028;28;20439;-49
2023/11/21 19:48:52;;;;;;;0.47;0.47;;;;;;;1.85;69.74;101840.31;15675387;28;20045;-49
2023/11/21 19:56:27;;;;;;;0.13;0.13;;;;;;;2.02;69.43;101844.22;15675041;28;20087;-48
2023/11/21 20:04:00;;;;;;;0.75;0.40;;;;;;;2.24;68.24;101859.19;15675658;28;20048;-51
2023/11/21 20:11:35;;;;;;;0.05;0.05;;;;;;;2.03;68.75;101859.13;15674532;28;20553;-50
2023/11/21 20:19:12;;;;;;;0.80;0.13;;;;;;;1.86;68.57;101873.75;15674681;28;20048;-50
2023/11/21 20:26:47;;;;;;;0.30;0.25;;;;;;;2.00;68.43;101878.75;15674464;28;20053;-51
2023/11/21 20:34:21;;;;;;;0.30;0.30;;;;;;;2.01;68.52;101890.22;15673741;28;20430;-49
2023/11/21 20:41:55;;;;;;;0.15;0.15;;;;;;;2.27;68.04;101903.94;15669086;28;20152;-50
2023/11/21 20:49:29;;;;;;;0.20;0.20;;;;;;;2.44;68.16;101915.78;15673471;28;20110;-51
2023/11/21 20:57:05;;;;;;;0.00;0.00;;;;;;;1.96;68.96;101925.00;15677216;28;20094;-52
2023/11/21 21:04:44;;;;;;;0.10;0.10;;;;;;;2.18;69.49;101941.78;15665938;28;20048;-52
2023/11/21 21:12:19;;;;;;;2.42;2.22;;;;;;;1.96;69.74;101943.56;15660653;28;20048;-51
2023/11/21 21:19:53;;;;;;;0.08;0.08;;;;;;;1.94;70.81;101932.22;15686447;28;20064;-51
2023/11/21 21:27:28;;;;;;;0.05;0.05;;;;;;;2.14;69.69;101943.00;15683741;28;20136;-50
2023/11/21 21:35:05;;;;;;;0.00;0.00;;;;;;;1.76;71.81;101962.81;15684168;28;20049;-52
2023/11/21 21:42:40;;;;;;;0.00;0.00;;;;;;;1.78;70.33;101966.22;15671584;28;20099;-48
2023/11/21 21:50:13;;;;;;;0.08;0.08;;;;;;;1.81;70.60;101973.88;15681559;28;20526;-50
2023/11/21 21:57:48;;;;;;;;;;;;;;;1.74;71.31;101975.34;15677725;28;20048;-53
2023/11/21 22:05:23;;;;;;;1.08;0.68;;;;;;;1.11;71.58;101990.84;15681997;28;19979;-48
2023/11/21 22:12:57;;;;;;;0.00;0.00;;;;;;;1.48;71.94;101986.19;15672189;28;20045;-50
2023/11/21 22:20:30;;;;;;;0.30;0.30;;;;;;;0.81;72.70;101979.97;15676487;28;20049;-51
2023/11/21 22:28:06;;;;;;;0.00;0.00;;;;;;;1.25;72.74;101995.91;15676931;28;20041;-51
2023/11/21 22:35:45;;;;;;;0.00;0.00;;;;;;;1.35;71.87;102011.06;15651212;28;20053;-50
2023/11/21 22:43:19;;;;;;;0.63;0.63;;;;;;;1.51;71.75;102019.50;15669751;28;20037;-51
2023/11/21 22:50:52;;;;;;;0.00;0.00;;;;;;;1.13;72.21;102015.38;15676910;28;20131;-50
2023/11/21 22:58:27;;;;;;;1.08;0.98;;;;;;;0.65;74.68;102041.06;15681188;28;20161;-48
2023/11/21 23:06:00;;;;;;;0.00;0.00;;;;;;;0.93;74.01;102047.75;15675079;28;20041;-49
2023/11/21 23:13:43;;;;;;;0.30;0.30;;;;;;;0.94;74.13;102052.94;15667890;28;20052;-49
2023/11/21 23:21:34;;;;;;;0.00;0.00;;;;;;;1.16;73.63;102060.09;15674841;28;20033;-51
2023/11/21 23:29:11;;;;;;;0.08;0.08;;;;;;;1.28;71.31;102053.03;15674961;28;20099;-48
2023/11/21 23:36:48;;;;;;;0.00;0.00;;;;;;;1.45;71.18;102068.47;15675604;28;20041;-45
2023/11/21 23:44:24;;;;;;;;;;;;;;;1.32;71.82;102072.16;15673200;28;20086;-51
2023/11/21 23:51:57;;;;;;;0.08;0.08;;;;;;;1.43;71.75;102070.38;15675019;28;19921;-46
2023/11/21 23:59:32;;;;;;;0.10;0.10;;;;;;;1.16;72.44;102080.41;15678990;28;20037;-49
